createdAt,value
2023-03-07T00:00:30.483Z,4.05
2023-03-07T00:03:32.070Z,5.25
2023-03-07T00:06:33.391Z,5.68
2023-03-07T00:09:34.716Z,3.58
2023-03-07T00:12:36.040Z,2.60
2023-03-07T00:15:37.784Z,5.32
2023-03-07T00:18:39.676Z,4.90
2023-03-07T00:21:40.957Z,5.55
2023-03-07T00:24:42.342Z,5.40
2023-03-07T00:27:43.610Z,5.32
2023-03-07T00:30:44.885Z,5.43
2023-03-07T00:33:46.336Z,5.63
2023-03-07T00:36:47.631Z,5.05
2023-03-07T00:39:51.784Z,5.53
2023-03-07T00:42:53.057Z,4.15
2023-03-07T00:45:54.742Z,5.63
2023-03-07T00:48:56.318Z,5.30
2023-03-07T00:51:57.632Z,5.47
2023-03-07T00:54:58.924Z,5.00
2023-03-07T00:58:00.241Z,3.95
2023-03-07T01:01:02.055Z,4.85
2023-03-07T01:04:03.749Z,2.92
2023-03-07T01:07:05.020Z,5.07
2023-03-07T01:10:06.449Z,3.63
2023-03-07T01:13:07.919Z,5.40
2023-03-07T01:16:09.334Z,3.30
2023-03-07T01:19:12.618Z,5.15
2023-03-07T01:22:13.947Z,3.70
2023-03-07T01:25:15.351Z,5.07
2023-03-07T01:28:16.661Z,3.10
2023-03-07T01:31:18.061Z,5.18
2023-03-07T01:34:19.430Z,5.57
2023-03-07T01:37:20.709Z,4.82
2023-03-07T01:40:23.335Z,3.85
2023-03-07T01:43:24.681Z,5.10
2023-03-07T01:46:29.076Z,5.47
2023-03-07T01:49:38.745Z,4.90
2023-03-07T01:52:41.896Z,5.28
2023-03-07T01:55:43.664Z,5.22
2023-03-07T01:58:46.111Z,5.78
2023-03-07T02:01:48.536Z,3.95
2023-03-07T02:04:54.960Z,4.07
2023-03-07T02:07:56.992Z,5.57
2023-03-07T02:10:58.264Z,4.63
2023-03-07T02:13:59.582Z,4.32
2023-03-07T02:17:01.449Z,4.00
2023-03-07T02:20:21.831Z,3.65
2023-03-07T02:23:42.082Z,4.55
2023-03-07T02:26:44.166Z,3.50
2023-03-07T02:29:45.476Z,5.05
2023-03-07T02:32:46.731Z,5.22
2023-03-07T02:35:48.075Z,2.65
2023-03-07T02:38:51.038Z,4.43
2023-03-07T02:41:55.049Z,3.92
2023-03-07T02:44:57.859Z,4.32
2023-03-07T02:47:59.118Z,4.75
2023-03-07T02:51:01.008Z,3.20
2023-03-07T02:54:02.273Z,4.20
2023-03-07T02:57:04.486Z,4.13
2023-03-07T03:00:10.414Z,5.18
2023-03-07T03:03:12.029Z,5.22
2023-03-07T03:06:13.359Z,4.47
2023-03-07T03:09:14.644Z,4.60
2023-03-07T03:12:16.030Z,4.55
2023-03-07T03:15:17.435Z,3.50
2023-03-07T03:18:18.712Z,4.22
2023-03-07T03:21:20.006Z,3.60
2023-03-07T03:24:21.291Z,5.25
2023-03-07T03:27:22.601Z,3.53
2023-03-07T03:30:23.852Z,4.68
2023-03-07T03:33:26.249Z,3.53
2023-03-07T03:36:27.650Z,3.35
2023-03-07T03:39:29.111Z,3.35
2023-03-07T03:42:30.354Z,4.30
2023-03-07T03:45:31.613Z,4.40
2023-03-07T03:48:32.951Z,3.95
2023-03-07T03:51:34.227Z,2.42
2023-03-07T03:54:35.523Z,3.40
2023-03-07T03:57:36.801Z,4.10
2023-03-07T04:00:38.096Z,2.38
2023-03-07T04:03:40.810Z,2.97
2023-03-07T04:06:42.551Z,4.95
2023-03-07T04:09:43.877Z,2.80
2023-03-07T04:12:46.677Z,4.50
2023-03-07T04:15:48.053Z,3.00
2023-03-07T04:18:52.382Z,3.78
2023-03-07T04:21:53.677Z,4.68
2023-03-07T04:24:56.620Z,4.38
2023-03-07T04:27:57.905Z,5.82
2023-03-07T04:30:59.138Z,4.18
2023-03-07T04:34:00.414Z,3.63
2023-03-07T04:37:01.748Z,5.03
2023-03-07T04:40:03.818Z,5.72
2023-03-07T04:43:05.388Z,5.38
2023-03-07T04:46:07.106Z,6.65
2023-03-07T04:49:08.412Z,4.00
2023-03-07T04:52:09.689Z,4.03
2023-03-07T04:55:11.068Z,5.18
2023-03-07T04:58:13.482Z,5.82
2023-03-07T05:01:14.832Z,2.45
2023-03-07T05:04:16.150Z,5.85
2023-03-07T05:07:17.516Z,5.10
2023-03-07T05:10:18.968Z,4.60
2023-03-07T05:13:20.224Z,3.65
2023-03-07T05:16:21.564Z,4.55
2023-03-07T05:19:22.897Z,3.13
2023-03-07T05:22:24.268Z,5.88
2023-03-07T05:25:25.895Z,4.63
2023-03-07T05:28:27.194Z,3.53
2023-03-07T05:31:28.528Z,4.90
2023-03-07T05:34:29.789Z,4.07
2023-03-07T05:37:31.107Z,4.82
2023-03-07T05:40:32.415Z,3.65
2023-03-07T05:43:33.652Z,4.47
2023-03-07T05:46:35.339Z,4.38
2023-03-07T05:49:36.663Z,5.10
2023-03-07T05:52:38.137Z,3.55
2023-03-07T05:55:39.452Z,4.78
2023-03-07T05:58:40.719Z,2.03
2023-03-07T06:01:42.590Z,4.40
2023-03-07T06:04:44.104Z,4.22
2023-03-07T06:07:45.398Z,3.30
2023-03-07T06:10:53.092Z,5.00
2023-03-07T06:13:55.772Z,5.25
2023-03-07T06:16:57.321Z,5.50
2023-03-07T06:19:58.550Z,3.50
2023-03-07T06:23:00.526Z,3.33
2023-03-07T06:26:02.016Z,3.15
2023-03-07T06:29:03.312Z,3.95
2023-03-07T06:32:04.900Z,4.28
2023-03-07T06:35:06.384Z,4.20
2023-03-07T06:38:08.048Z,3.55
2023-03-07T06:41:09.574Z,4.90
2023-03-07T06:44:10.858Z,2.92
2023-03-07T06:47:12.186Z,3.70
2023-03-07T06:50:13.460Z,5.50
2023-03-07T06:53:14.760Z,4.38
2023-03-07T06:56:16.121Z,4.57
2023-03-07T06:59:17.374Z,4.55
2023-03-07T07:02:18.723Z,3.88
2023-03-07T07:05:20.066Z,3.70
2023-03-07T07:08:21.431Z,3.75
2023-03-07T07:11:23.481Z,4.07
2023-03-07T07:14:24.806Z,3.13
2023-03-07T07:17:26.111Z,3.65
2023-03-07T07:20:28.430Z,2.40
2023-03-07T07:23:29.793Z,4.47
2023-03-07T07:26:31.107Z,2.97
2023-03-07T07:29:32.947Z,2.45
2023-03-07T07:32:34.637Z,3.60
2023-03-07T07:35:36.286Z,2.88
2023-03-07T07:38:37.697Z,3.10
2023-03-07T07:41:39.056Z,2.95
2023-03-07T07:44:40.288Z,2.72
2023-03-07T07:47:41.786Z,3.28
2023-03-07T07:50:43.193Z,3.00
2023-03-07T07:53:44.766Z,3.03
2023-03-07T07:56:46.597Z,2.83
2023-03-07T07:59:47.841Z,3.15
2023-03-07T08:02:49.788Z,3.65
2023-03-07T08:05:51.846Z,3.08
2023-03-07T08:08:53.279Z,2.83
2023-03-07T08:11:54.568Z,4.75
2023-03-07T08:14:55.863Z,3.40
2023-03-07T08:17:58.434Z,3.63
2023-03-07T08:20:59.769Z,3.47
2023-03-07T08:24:01.080Z,3.53
2023-03-07T08:27:03.124Z,3.40
2023-03-07T08:30:04.559Z,2.53
2023-03-07T08:33:05.862Z,3.28
2023-03-07T08:36:07.684Z,3.47
2023-03-07T08:39:09.017Z,2.70
2023-03-07T08:42:10.289Z,2.58
2023-03-07T08:45:11.806Z,3.75
2023-03-07T08:48:13.094Z,2.70
2023-03-07T08:51:15.901Z,3.80
2023-03-07T08:54:17.204Z,2.90
2023-03-07T08:57:18.447Z,3.03
2023-03-07T09:00:21.267Z,3.05
2023-03-07T09:03:22.581Z,3.20
2023-03-07T09:06:24.008Z,1.95
2023-03-07T09:09:25.313Z,3.85
2023-03-07T09:12:26.652Z,2.60
2023-03-07T09:15:27.992Z,3.38
2023-03-07T09:18:31.581Z,2.97
2023-03-07T09:21:32.983Z,4.30
2023-03-07T09:24:34.310Z,3.60
2023-03-07T09:27:35.665Z,3.38
2023-03-07T09:30:37.303Z,2.72
2023-03-07T09:33:38.803Z,3.20
2023-03-07T09:36:40.064Z,3.03
2023-03-07T09:39:41.352Z,3.15
2023-03-07T09:42:42.633Z,2.83
2023-03-07T09:45:53.298Z,1.73
2023-03-07T09:49:01.582Z,2.78
2023-03-07T09:52:03.951Z,2.83
2023-03-07T09:55:13.347Z,2.70
2023-03-07T09:58:18.865Z,2.22
2023-03-07T10:01:21.714Z,3.05
2023-03-07T10:04:43.397Z,2.33
2023-03-07T10:07:44.767Z,3.03
2023-03-07T10:11:12.472Z,2.03
2023-03-07T10:14:38.258Z,2.25
2023-03-07T10:17:47.691Z,2.35
2023-03-07T10:20:53.388Z,2.50
2023-03-07T10:24:03.847Z,3.42
2023-03-07T10:27:09.046Z,1.88
2023-03-07T10:30:15.546Z,2.28
2023-03-07T10:33:18.141Z,2.22
2023-03-07T10:36:20.981Z,1.90
2023-03-07T10:39:38.015Z,2.22
2023-03-07T10:42:40.969Z,2.60
2023-03-07T10:45:42.218Z,2.25
2023-03-07T10:48:53.707Z,1.85
2023-03-07T10:52:01.075Z,2.60
2023-03-07T10:55:23.618Z,1.67
2023-03-07T10:58:26.207Z,2.70
2023-03-07T11:01:28.111Z,1.67
2023-03-07T11:04:42.230Z,2.22
2023-03-07T11:07:43.598Z,1.85
2023-03-07T11:10:44.991Z,1.80
2023-03-07T11:14:03.757Z,1.38
2023-03-07T11:17:17.078Z,1.40
2023-03-07T11:20:18.514Z,2.00
2023-03-07T11:23:26.130Z,1.95
2023-03-07T11:26:29.997Z,2.35
2023-03-07T11:29:34.860Z,1.75
2023-03-07T11:32:39.450Z,1.92
2023-03-07T11:35:48.453Z,2.17
2023-03-07T11:38:49.834Z,1.60
2023-03-07T11:42:03.764Z,1.83
2023-03-07T11:45:24.025Z,2.25
2023-03-07T11:48:44.229Z,1.75
2023-03-07T11:51:45.579Z,1.83
2023-03-07T11:54:49.972Z,2.28
2023-03-07T11:58:20.498Z,1.85
2023-03-07T12:01:24.582Z,2.05
2023-03-07T12:04:44.923Z,2.72
2023-03-07T12:07:46.193Z,2.17
2023-03-07T12:11:03.648Z,2.35
2023-03-07T12:14:16.985Z,2.30
2023-03-07T12:17:37.480Z,2.67
2023-03-07T12:20:47.868Z,2.38
2023-03-07T12:23:52.808Z,2.25
2023-03-07T12:27:02.476Z,1.90
2023-03-07T12:30:13.598Z,3.05
2023-03-07T12:33:21.150Z,3.67
2023-03-07T12:36:26.243Z,2.25
2023-03-07T12:39:30.725Z,2.47
2023-03-07T12:42:32.259Z,2.38
2023-03-07T12:45:39.358Z,2.72
2023-03-07T12:48:44.436Z,3.70
2023-03-07T12:51:47.847Z,2.63
2023-03-07T12:54:55.211Z,3.00
2023-03-07T12:58:19.524Z,2.35
2023-03-07T13:01:30.291Z,2.92
2023-03-07T13:04:39.180Z,2.78
2023-03-07T13:07:41.175Z,1.65
2023-03-07T13:10:44.713Z,2.83
2023-03-07T13:13:45.957Z,2.20
2023-03-07T13:16:47.597Z,2.55
2023-03-07T13:19:51.489Z,2.80
2023-03-07T13:22:53.802Z,2.72
2023-03-07T13:25:56.484Z,3.22
2023-03-07T13:28:57.817Z,3.85
2023-03-07T13:31:59.129Z,2.47
2023-03-07T13:35:00.425Z,2.55
2023-03-07T13:38:05.195Z,2.88
2023-03-07T13:44:25.220Z,2.67
2023-03-07T13:47:43.030Z,3.05
2023-03-07T13:50:56.330Z,2.58
2023-03-07T13:54:05.571Z,2.33
2023-03-07T13:57:15.192Z,3.78
2023-03-07T14:00:24.718Z,2.80
2023-03-07T14:03:28.648Z,2.65
2023-03-07T14:06:36.226Z,2.72
2023-03-07T14:09:37.540Z,2.50
2023-03-07T14:12:51.952Z,3.42
2023-03-07T14:15:53.297Z,2.00
2023-03-07T14:19:04.267Z,3.10
2023-03-07T14:22:13.698Z,2.42
2023-03-07T14:25:20.928Z,2.30
2023-03-07T14:28:23.982Z,1.83
2023-03-07T14:31:27.350Z,3.00
2023-03-07T14:34:28.736Z,2.60
2023-03-07T14:37:31.015Z,1.65
2023-03-07T14:40:51.145Z,2.67
2023-03-07T14:44:15.714Z,2.53
2023-03-07T14:50:28.907Z,2.40
2023-03-07T14:53:30.887Z,3.90
2023-03-07T14:56:32.365Z,2.92
2023-03-07T14:59:33.717Z,2.13
2023-03-07T15:02:35.019Z,2.28
2023-03-07T15:05:48.372Z,1.80
2023-03-07T15:08:52.000Z,1.90
2023-03-07T15:11:53.405Z,2.00
2023-03-07T15:14:56.732Z,1.50
2023-03-07T15:18:03.656Z,1.77
2023-03-07T15:21:05.792Z,2.13
2023-03-07T15:24:15.843Z,1.73
2023-03-07T15:27:20.681Z,2.45
2023-03-07T15:33:27.657Z,1.58
2023-03-07T15:36:29.003Z,2.85
2023-03-07T15:39:34.249Z,2.15
2023-03-07T15:43:10.948Z,2.25
2023-03-07T15:46:18.996Z,2.08
2023-03-07T15:49:35.055Z,1.77
2023-03-07T15:52:37.815Z,1.23
2023-03-07T15:55:39.420Z,2.30
2023-03-07T15:58:42.974Z,1.70
2023-03-07T16:01:44.324Z,2.50
2023-03-07T16:04:45.654Z,2.05
2023-03-07T16:07:47.512Z,2.05
2023-03-07T16:11:00.032Z,2.35
2023-03-07T16:14:01.500Z,2.50
2023-03-07T16:17:05.763Z,2.30
2023-03-07T16:20:14.205Z,2.45
2023-03-07T16:23:15.496Z,2.67
2023-03-07T16:26:21.806Z,2.90
2023-03-07T16:29:23.291Z,1.48
2023-03-07T16:32:24.621Z,3.33
2023-03-07T16:35:28.595Z,3.70
2023-03-07T16:38:29.911Z,3.65
2023-03-07T16:41:31.270Z,2.58
2023-03-07T16:44:32.682Z,2.85
2023-03-07T16:47:34.134Z,3.92
2023-03-07T16:50:35.409Z,2.08
2023-03-07T16:53:36.678Z,1.35
2023-03-07T16:56:40.770Z,2.15
2023-03-07T16:59:43.480Z,3.05
2023-03-07T17:02:48.748Z,3.08
2023-03-07T17:05:50.225Z,2.85
2023-03-07T17:08:53.002Z,2.40
2023-03-07T17:11:54.340Z,3.70
2023-03-07T17:14:57.513Z,2.75
2023-03-07T17:17:59.625Z,2.53
2023-03-07T17:21:00.928Z,2.03
2023-03-07T17:24:02.196Z,3.10
2023-03-07T17:27:03.599Z,3.42
2023-03-07T17:30:05.033Z,4.20
2023-03-07T17:33:06.335Z,3.40
2023-03-07T17:36:09.679Z,3.13
2023-03-07T17:39:11.019Z,2.50
2023-03-07T17:42:12.607Z,3.30
2023-03-07T17:45:14.013Z,1.52
2023-03-07T17:48:17.348Z,3.10
2023-03-07T17:51:18.670Z,2.75
2023-03-07T17:54:19.993Z,2.50
2023-03-07T17:57:21.300Z,4.30
2023-03-07T18:00:22.916Z,2.22
2023-03-07T18:03:24.297Z,2.58
2023-03-07T18:06:25.817Z,2.83
2023-03-07T18:09:27.105Z,2.45
2023-03-07T18:12:29.131Z,2.58
2023-03-07T18:15:30.507Z,2.10
2023-03-07T18:18:35.873Z,2.35
2023-03-07T18:21:37.362Z,3.42
2023-03-07T18:24:38.750Z,3.58
2023-03-07T18:27:40.063Z,2.58
2023-03-07T18:30:41.502Z,3.72
2023-03-07T18:33:43.093Z,2.63
2023-03-07T18:36:44.424Z,1.45
2023-03-07T18:39:45.680Z,2.00
2023-03-07T18:42:46.926Z,2.92
2023-03-07T18:45:48.350Z,2.65
2023-03-07T18:48:49.914Z,2.58
2023-03-07T18:51:51.256Z,2.25
2023-03-07T18:54:52.492Z,3.50
2023-03-07T18:57:53.824Z,2.40
2023-03-07T19:00:55.475Z,2.80
2023-03-07T19:04:00.641Z,2.60
2023-03-07T19:07:04.010Z,3.13
2023-03-07T19:10:05.964Z,2.35
2023-03-07T19:13:07.558Z,1.90
2023-03-07T19:16:11.568Z,3.22
2023-03-07T19:19:12.937Z,3.10
2023-03-07T19:22:14.569Z,2.30
2023-03-07T19:25:16.030Z,2.72
2023-03-07T19:28:17.479Z,2.63
2023-03-07T19:31:23.163Z,2.75
2023-03-07T19:34:25.776Z,2.90
2023-03-07T19:37:27.081Z,2.65
2023-03-07T19:40:28.582Z,3.80
2023-03-07T19:43:30.285Z,2.70
2023-03-07T19:46:31.871Z,2.97
2023-03-07T19:49:34.415Z,2.75
2023-03-07T19:52:35.729Z,2.65
2023-03-07T19:55:36.977Z,2.78
2023-03-07T19:58:38.629Z,2.90
2023-03-07T20:01:40.034Z,2.58
2023-03-07T20:04:41.352Z,3.15
2023-03-07T20:07:42.615Z,1.70
2023-03-07T20:10:44.693Z,2.33
2023-03-07T20:13:46.732Z,1.60
2023-03-07T20:16:48.046Z,2.65
2023-03-07T20:19:50.140Z,3.05
2023-03-07T20:22:55.345Z,2.20
2023-03-07T20:26:07.322Z,3.33
2023-03-07T20:29:09.420Z,2.17
2023-03-07T20:32:11.577Z,2.97
2023-03-07T20:35:13.279Z,2.45
2023-03-07T20:38:14.570Z,3.83
2023-03-07T20:41:16.571Z,3.88
2023-03-07T20:44:18.053Z,4.28
2023-03-07T20:47:19.553Z,3.03
2023-03-07T20:50:20.968Z,2.08
2023-03-07T20:53:22.218Z,2.70
2023-03-07T20:56:24.364Z,2.55
2023-03-07T20:59:25.666Z,3.92
2023-03-07T21:02:27.052Z,2.03
2023-03-07T21:05:29.494Z,2.85
2023-03-07T21:08:32.299Z,3.53
2023-03-07T21:11:34.204Z,2.97
2023-03-07T21:14:35.469Z,2.40
2023-03-07T21:17:36.789Z,2.95
2023-03-07T21:20:41.334Z,3.38
2023-03-07T21:23:42.623Z,2.95
2023-03-07T21:26:43.936Z,2.28
2023-03-07T21:29:45.193Z,3.20
2023-03-07T21:32:46.536Z,3.85
2023-03-07T21:35:48.061Z,3.67
2023-03-07T21:38:49.585Z,2.85
2023-03-07T21:41:51.171Z,3.38
2023-03-07T21:44:52.530Z,3.85
2023-03-07T21:47:54.287Z,3.17
2023-03-07T21:50:55.698Z,3.58
2023-03-07T21:53:57.332Z,2.50
2023-03-07T21:56:58.831Z,2.33
2023-03-07T22:00:00.171Z,3.00
2023-03-07T22:03:01.497Z,2.85
2023-03-07T22:06:09.943Z,2.80
2023-03-07T22:09:11.229Z,1.88
2023-03-07T22:12:12.469Z,3.20
2023-03-07T22:15:13.716Z,2.45
2023-03-07T22:18:15.011Z,2.70
2023-03-07T22:21:18.171Z,2.75
2023-03-07T22:24:19.474Z,2.22
2023-03-07T22:27:20.809Z,2.90
2023-03-07T22:30:22.310Z,2.00
2023-03-07T22:33:23.587Z,2.25
2023-03-07T22:36:24.881Z,2.03
2023-03-07T22:39:26.875Z,1.98
2023-03-07T22:42:28.119Z,2.38
2023-03-07T22:45:29.378Z,2.08
2023-03-07T22:48:30.731Z,1.73
2023-03-07T22:51:32.074Z,1.98
2023-03-07T22:54:34.949Z,2.25
2023-03-07T22:57:36.221Z,2.00
2023-03-07T23:00:39.130Z,2.00
2023-03-07T23:03:40.488Z,2.47
2023-03-07T23:06:41.787Z,2.88
2023-03-07T23:09:43.025Z,2.28
2023-03-07T23:12:44.271Z,2.55
2023-03-07T23:15:45.552Z,2.22
2023-03-07T23:18:48.628Z,3.42
2023-03-07T23:21:49.882Z,1.88
2023-03-07T23:24:51.162Z,2.17
2023-03-07T23:27:52.452Z,2.25
2023-03-07T23:30:53.749Z,2.88
2023-03-07T23:33:56.198Z,2.63
2023-03-07T23:36:57.517Z,2.08
2023-03-07T23:40:00.646Z,2.30
2023-03-07T23:43:01.977Z,2.30
2023-03-07T23:46:03.838Z,2.47
2023-03-07T23:49:05.467Z,3.72
2023-03-07T23:52:06.832Z,2.45
2023-03-07T23:55:09.085Z,2.50
2023-03-07T23:58:10.422Z,2.55
